Time;durP1;ratioP1;P1;durP2;ratioP2;P2;SDS_P1;SDS_P2;PMS_P1;PMS_P2;Temp;Humidity;BMP_temperature;BMP_pressure;BME280_temperature;BME280_humidity;BME280_pressure;Samples;Min_cycle;Max_cycle;Signal;HPM_P1;HPM_P2
2021/05/27 00:14:55;;;;;;;2.40;0.80;;;;;;;19.21;43.06;100417.22;31402792;28;20058;-62
2021/05/27 00:29:57;;;;;;;2.55;0.90;;;;;;;19.18;42.86;100420.16;31526038;28;20563;-62
2021/05/27 00:45:17;;;;;;;1.60;0.70;;;;;;;19.16;43.04;100432.63;31419202;28;20029;-63
2021/05/27 01:00:21;;;;;;;1.58;0.70;;;;;;;19.14;43.02;100429.28;31478696;28;20032;-63
2021/05/27 01:15:31;;;;;;;1.63;0.70;;;;;;;19.13;43.28;100447.91;31432199;28;20098;-63
2021/05/27 01:30:32;;;;;;;2.15;0.90;;;;;;;19.10;43.33;100443.72;31561664;28;20048;-61
2021/05/27 01:45:34;;;;;;;4.40;0.90;;;;;;;19.10;43.43;100453.41;31413738;28;20605;-59
2021/05/27 02:00:35;;;;;;;1.90;0.90;;;;;;;19.07;43.61;100453.72;31455866;28;20036;-62
2021/05/27 02:15:37;;;;;;;1.73;0.90;;;;;;;19.05;43.37;100446.75;31438443;28;20040;-63
2021/05/27 02:30:38;;;;;;;1.60;0.70;;;;;;;19.03;43.68;100461.91;31513191;28;20069;-62
2021/05/27 02:45:39;;;;;;;1.95;1.00;;;;;;;19.02;43.49;100469.94;31486742;28;20386;-63
2021/05/27 03:00:40;;;;;;;1.85;0.70;;;;;;;19.02;43.51;100472.56;31415106;28;20037;-62
2021/05/27 03:15:41;;;;;;;2.22;0.82;;;;;;;19.02;43.58;100462.03;31449195;28;20037;-63
2021/05/27 03:30:42;;;;;;;2.72;0.90;;;;;;;19.04;43.51;100470.63;31495274;28;20117;-63
2021/05/27 03:45:43;;;;;;;1.92;1.00;;;;;;;19.06;43.34;100484.50;31470617;28;20033;-62
2021/05/27 04:00:45;;;;;;;2.00;1.10;;;;;;;19.04;43.41;100495.16;31461956;28;20036;-64
2021/05/27 04:15:47;;;;;;;2.03;0.90;;;;;;;19.07;43.39;100496.69;31417388;28;20040;-62
2021/05/27 04:46:08;;;;;;;1.77;1.00;;;;;;;19.10;43.36;100519.28;31465876;28;20032;-61
2021/05/27 05:01:09;;;;;;;2.60;1.20;;;;;;;19.15;43.34;100519.69;31402030;28;20155;-62
2021/05/27 05:16:10;;;;;;;2.28;1.10;;;;;;;19.32;42.75;100521.66;31405929;28;20048;-62
2021/05/27 05:31:11;;;;;;;3.28;1.10;;;;;;;19.46;42.49;100520.41;31466416;28;20044;-60
2021/05/27 05:46:12;;;;;;;2.38;1.17;;;;;;;19.48;42.57;100534.28;31477930;28;20075;-60
2021/05/27 06:01:13;;;;;;;2.33;1.02;;;;;;;19.48;42.17;100546.66;31386392;28;20159;-60
2021/05/27 06:16:14;;;;;;;8.07;3.70;;;;;;;18.63;41.64;100556.69;31356449;28;20052;-57
2021/05/27 06:31:15;;;;;;;5.47;3.42;;;;;;;17.46;44.42;100565.63;31392869;28;20143;-55
2021/05/27 06:46:17;;;;;;;7.50;3.67;;;;;;;16.82;45.74;100577.69;31454165;28;20367;-58
2021/05/27 07:01:18;;;;;;;5.05;2.30;;;;;;;17.37;46.90;100583.81;31461813;28;20033;-60
2021/05/27 07:16:19;;;;;;;5.05;1.98;;;;;;;18.05;45.43;100604.59;31468036;28;20068;-61
2021/05/27 07:31:20;;;;;;;4.15;1.45;;;;;;;18.75;43.76;100613.56;31465163;28;20456;-64
2021/05/27 07:46:21;;;;;;;4.20;1.63;;;;;;;18.98;42.97;100605.50;31453317;28;20028;-63
2021/05/27 08:01:22;;;;;;;2.53;1.48;;;;;;;18.91;42.56;100612.25;31463699;28;20437;-63
2021/05/27 08:16:23;;;;;;;2.58;1.50;;;;;;;18.82;42.64;100613.88;31456967;28;20017;-64
2021/05/27 08:31:24;;;;;;;3.72;1.60;;;;;;;18.89;42.27;100619.47;31466683;28;20049;-64
2021/05/27 08:46:25;;;;;;;2.83;1.38;;;;;;;19.09;42.68;100609.84;31445804;28;20448;-63
2021/05/27 09:01:26;;;;;;;3.13;1.80;;;;;;;19.00;43.51;100620.19;31497481;28;20049;-63
2021/05/27 09:16:27;;;;;;;3.25;1.70;;;;;;;19.32;42.68;100631.50;31488748;28;20036;-64
2021/05/27 09:31:31;;;;;;;5.30;2.03;;;;;;;19.56;42.06;100623.22;31468536;28;20440;-64
2021/05/27 09:46:51;;;;;;;3.78;1.70;;;;;;;19.79;41.51;100640.50;31482799;28;20063;-66
2021/05/27 10:02:12;;;;;;;4.65;1.52;;;;;;;20.23;40.89;100640.88;31486716;28;20049;-65
2021/05/27 10:17:15;;;;;;;5.68;3.10;;;;;;;20.68;39.70;100621.75;31455639;28;20437;-63
2021/05/27 10:32:18;;;;;;;4.05;2.80;;;;;;;20.70;39.79;100625.06;31467065;28;20048;-63
2021/05/27 10:47:19;;;;;;;5.28;2.03;;;;;;;20.41;39.56;100625.16;31462854;28;20024;-62
2021/05/27 11:02:23;;;;;;;5.00;2.40;;;;;;;20.14;40.57;100649.63;31438003;28;20064;-56
2021/05/27 11:17:25;;;;;;;5.10;2.25;;;;;;;20.45;40.27;100657.34;31460500;28;20119;-63
2021/05/27 11:32:35;;;;;;;3.50;1.85;;;;;;;20.83;39.29;100647.69;31463574;28;20048;-63
2021/05/27 11:47:36;;;;;;;4.63;2.22;;;;;;;20.49;39.81;100646.38;31485089;28;20028;-62
2021/05/27 12:02:44;;;;;;;4.45;1.90;;;;;;;20.09;41.50;100683.53;31470277;28;20067;-65
2021/05/27 12:17:45;;;;;;;4.18;2.00;;;;;;;20.69;40.87;100663.03;31436982;28;20036;-64
2021/05/27 12:32:47;;;;;;;4.25;2.30;;;;;;;20.64;41.18;100661.81;31448268;28;20044;-65
2021/05/27 12:48:14;;;;;;;4.68;1.90;;;;;;;20.66;41.46;100649.25;31461927;28;20035;-63
2021/05/27 13:03:15;;;;;;;3.83;2.20;;;;;;;20.77;41.54;100656.19;31465946;28;20029;-65
2021/05/27 13:18:16;;;;;;;4.68;2.03;;;;;;;20.45;42.17;100686.41;31482751;28;20040;-65
2021/05/27 13:33:20;;;;;;;5.75;3.40;;;;;;;20.19;42.60;100715.19;31458285;28;20037;-64
2021/05/27 13:48:21;;;;;;;4.63;3.00;;;;;;;20.47;42.18;100714.31;31474597;28;20032;-63
2021/05/27 14:03:23;;;;;;;4.68;2.90;;;;;;;20.65;41.93;100703.06;31445907;28;20025;-65
2021/05/27 14:18:24;;;;;;;4.00;2.65;;;;;;;20.36;42.53;100727.66;31458518;28;20048;-66
2021/05/27 14:33:25;;;;;;;3.97;2.58;;;;;;;20.47;42.30;100738.06;31465700;28;20040;-65
2021/05/27 14:48:26;;;;;;;7.22;3.30;;;;;;;20.75;42.42;100740.84;31468545;28;20405;-62
2021/05/27 15:03:27;;;;;;;5.90;2.97;;;;;;;20.62;42.82;100751.72;31459454;28;20028;-64
2021/05/27 15:18:32;;;;;;;5.68;2.55;;;;;;;20.37;43.65;100781.31;31462723;28;20033;-65
2021/05/27 15:33:34;;;;;;;6.05;3.10;;;;;;;20.20;44.13;100788.94;31446185;28;20029;-63
2021/05/27 15:48:35;;;;;;;4.60;2.72;;;;;;;20.36;44.01;100782.28;31470479;28;20086;-64
2021/05/27 16:03:36;;;;;;;4.18;2.58;;;;;;;20.51;43.37;100802.84;31449069;28;20029;-65
2021/05/27 16:18:37;;;;;;;4.63;2.78;;;;;;;20.42;43.64;100808.13;31438262;28;20390;-61
2021/05/27 16:33:40;;;;;;;5.05;2.58;;;;;;;20.32;44.12;100817.81;31446031;28;20033;-64
2021/05/27 16:48:43;;;;;;;6.20;2.85;;;;;;;20.25;44.09;100826.31;31414446;28;20552;-66
2021/05/27 17:03:44;;;;;;;5.90;3.10;;;;;;;20.14;44.11;100825.59;31478045;28;20041;-65
2021/05/27 17:18:46;;;;;;;4.68;2.92;;;;;;;20.04;44.59;100818.50;31459348;28;20049;-66
2021/05/27 17:33:47;;;;;;;5.65;3.22;;;;;;;20.01;44.91;100831.13;31484778;28;20074;-66
2021/05/27 17:48:49;;;;;;;5.80;3.28;;;;;;;19.87;45.32;100842.88;31502638;28;20137;-63
2021/05/27 18:03:50;;;;;;;3.40;1.15;;;;;;;18.68;45.93;100859.91;31447906;28;20109;-60
2021/05/27 18:18:51;;;;;;;3.42;1.30;;;;;;;18.03;47.99;100873.91;31464494;28;20109;-64
2021/05/27 18:33:52;;;;;;;3.78;1.90;;;;;;;18.56;46.90;100890.69;31480981;28;20027;-67
2021/05/27 18:48:53;;;;;;;5.47;2.20;;;;;;;18.86;46.00;100902.34;31463807;28;20024;-65
2021/05/27 19:03:54;;;;;;;7.32;2.60;;;;;;;19.02;46.41;100915.09;31471706;28;20036;-65
2021/05/27 19:18:55;;;;;;;4.25;2.20;;;;;;;19.09;46.49;100939.13;31464796;28;20094;-67
2021/05/27 19:33:57;;;;;;;11.98;7.45;;;;;;;19.13;46.38;100953.72;31452093;28;20045;-67
2021/05/27 19:49:03;;;;;;;8.65;5.95;;;;;;;19.15;46.42;100976.34;31467405;28;20475;-67
2021/05/27 20:04:05;;;;;;;8.30;6.07;;;;;;;19.17;46.37;100987.59;31440096;28;20494;-68
2021/05/27 20:19:07;;;;;;;8.95;5.72;;;;;;;19.19;46.43;101006.72;31445874;28;20081;-65
2021/05/27 20:34:07;;;;;;;6.68;4.95;;;;;;;19.18;46.15;101015.63;31440256;28;20105;-67
2021/05/27 20:49:09;;;;;;;6.93;5.13;;;;;;;19.19;46.22;101025.19;31460621;28;20410;-67
2021/05/27 21:04:10;;;;;;;7.75;5.25;;;;;;;19.19;46.17;101037.53;31462704;28;20037;-66
2021/05/27 21:19:11;;;;;;;8.02;5.78;;;;;;;19.27;46.62;101050.09;31463554;28;20091;-61
2021/05/27 21:34:12;;;;;;;12.65;8.13;;;;;;;19.27;46.95;101064.09;31474653;28;20032;-63
2021/05/27 21:49:13;;;;;;;9.50;7.43;;;;;;;19.28;47.47;101068.41;31439273;28;20051;-66
2021/05/27 22:04:15;;;;;;;12.90;8.63;;;;;;;19.30;47.50;101074.38;31448824;28;20045;-64
2021/05/27 22:19:16;;;;;;;12.88;9.23;;;;;;;19.31;47.36;101094.53;31461920;28;20040;-65
2021/05/27 22:34:17;;;;;;;13.82;10.90;;;;;;;19.30;47.49;101097.28;31478324;28;20048;-64
2021/05/27 22:49:18;;;;;;;12.65;9.75;;;;;;;19.23;47.52;101125.91;31489302;28;20024;-63
2021/05/27 23:04:19;;;;;;;13.75;10.95;;;;;;;19.18;47.26;101123.66;31489297;28;20375;-63
2021/05/27 23:19:21;;;;;;;14.07;11.80;;;;;;;19.15;47.47;101116.00;31418081;28;20045;-62
2021/05/27 23:34:22;;;;;;;15.38;11.90;;;;;;;19.14;47.34;101138.03;31442501;28;20541;-61
2021/05/27 23:49:23;;;;;;;14.98;12.35;;;;;;;19.11;47.27;101138.28;31391623;28;20040;-63
